Friday, May 22, 2015, 3:05 PM EDT

KRIC, Richmond International Airport

Location: Sandston, VA, United States Lat: 37.517
Local Time: 3:05 PM EDT (19:05 GMT) Lon: -77.317
Time Zone: US/Eastern Elev: 167 ft

Show me the last for .
Show Decoded

2015-05-22 13:54 METAR KRIC 221754Z 32009KT 10SM FEW250 23/06 A3015 RMK AO2 SLP214 T02280056
                 10228 20144 51000 =
2015-05-22 12:54 METAR KRIC 221654Z 28008KT 10SM FEW050 SCT250 22/05 A3015 RMK AO2 SLP214
                 T02220050 =
2015-05-22 11:54 METAR KRIC 221554Z 28009KT 10SM FEW050 22/07 A3015 RMK AO2 SLP215 T02170067 =
2015-05-22 10:54 METAR KRIC 221454Z 31010G15KT 10SM CLR 19/07 A3015 =
2015-05-22 09:54 METAR KRIC 221354Z 29008KT 10SM CLR 17/06 A3014 RMK AO2 SLP211 T01720061 $ =
2015-05-22 08:54 METAR KRIC 221254Z 28007KT 10SM CLR 16/07 A3013 RMK AO2 SLP207 T01560067 $ =
2015-05-22 07:54 METAR KRIC 221154Z 28005KT 10SM CLR 14/08 A3011 RMK AO2 SLP201 70097 T01390083
                 10144 20111 53025 $ =
2015-05-22 06:54 METAR KRIC 221054Z 00000KT 10SM FEW300 12/09 A3009 RMK AO2 SLP193 T01220089 $ =
2015-05-22 05:54 METAR KRIC 220954Z 31005KT 10SM FEW300 11/08 A3006 RMK AO2 SLP184 T01110083 $ =
2015-05-22 04:54 METAR KRIC 220854Z 32006KT 10SM CLR 12/08 A3004 RMK AO2 SLP176 T01170083 53019 $
                 =
2015-05-22 03:54 METAR KRIC 220754Z 34005KT 10SM SCT008 12/10 A3001 =
2015-05-22 03:36 METAR KRIC 220736Z 32006KT 10SM SCT008 12/10 A3000 RMK AO2 $ =
2015-05-22 02:54 METAR KRIC 220654Z 34004KT 10SM BKN008 12/10 A2998 =
2015-05-22 02:21 METAR KRIC 220621Z 31006KT 10SM BKN008 BKN012 12/11 A2998 RMK AO2 CIG 007V010 $
                 =
2015-05-22 01:54 METAR KRIC 220554Z 32004KT 10SM SCT008 SCT090 12/10 A2998 RMK AO2 SLP157
                 T01170100 10139 20117 51007 $ =
2015-05-22 01:14 METAR KRIC 220514Z 31005KT 10SM BKN008 BKN090 12/11 A2998 RMK AO2 $ =
2015-05-22 00:54 METAR KRIC 220454Z 33005KT 10SM BKN010 BKN090 12/11 A2998 RMK AO2 SLP155
                 T01220106 401560117 $ =
2015-05-22 00:39 METAR KRIC 220439Z 33005KT 10SM SCT010 SCT090 12/10 A2998 RMK AO2 $ =
2015-05-21 23:54 METAR KRIC 220354Z 31009KT 10SM OVC010 13/10 A2997 RMK AO2 SLP152 T01280100 $ =
2015-05-21 23:41 METAR KRIC 220341Z 33005KT 10SM OVC008 13/11 A2996 RMK AO2 $ =
2015-05-21 23:23 METAR KRIC 220323Z 34005KT 10SM OVC010 13/11 A2996 RMK AO2 $ =
2015-05-21 22:54 METAR KRIC 220254Z 33007KT 10SM OVC007 13/11 A2996 RMK AO2 SLP149 T01280111
                 53016 $ =
2015-05-21 21:54 METAR KRIC 220154Z 36010KT 10SM OVC009 13/11 A2994 RMK AO2 SLP143 T01280106 $ =
2015-05-21 20:54 METAR KRIC 220054Z 34009KT 10SM OVC005 13/11 A2992 RMK AO2 SLP135 T01330111 $ =
2015-05-21 19:54 METAR KRIC 212354Z 35007KT 10SM OVC008 14/12 A2991 RMK AO2 SLP133 CIG 006V015
                 60036 T01390117 10144 20133 50017 $ =
2015-05-21 19:33 METAR KRIC 212333Z 01006KT 10SM FEW007 OVC013 14/12 A2991 RMK AO2 $ =
2015-05-21 19:10 METAR KRIC 212310Z 03006KT 10SM OVC008 14/12 A2991 RMK AO2 $ =
2015-05-21 18:54 METAR KRIC 212254Z 01006KT 10SM OVC011 14/12 A2992 RMK AO2 SLP135 CIG 009V017
                 T01390117 $ =
2015-05-21 17:54 METAR KRIC 212154Z 03009KT 10SM OVC010 14/12 A2988 RMK AO2 SLP124 CIG 007V013
                 T01440117 $ =
2015-05-21 16:54 METAR KRIC 212054Z 05010G17KT 10SM BKN009 OVC044 14/12 A2986 RMK AO2 RAE18
                 SLP116 P0000 60036 T01390122 58014 $ =
2015-05-21 15:54 METAR KRIC 211954Z 02008KT 3SM RA BR BKN007 BKN027 OVC050 13/12 A2989 RMK AO2
                 SLP125 P0007 T01330122 =

Support USWX by starting your Amazon purchase here.